Namao — CZ9742 — position and weather

sailwx.info

Track history (hours):
 
Tides and Currents Weather Stations Pressure Air Temp Water Temp Dewpoint Dewpoint Depression Visibility Wind Speed Wind Dir Waves Ship Positions

Oceanographic research ship Namao (Canada)

Last reported at 2017-Jan-24 18:00 UTC. Time now 2017-Jan-24 19:18 UTC.
Position N 50°36' W 096°54'.

Wind from 250 at 2 knots

Barometer 1010.9 mb
Air temperature -2.0 ° C
Dewpoint -2.0 ° C

Date/timePositionNaut miles runAvg speedWind from/ knotsBaromVisibWave heightAir tempDewpointWater temp
2017-Jan-24 18:00N 50°36' W 096°54'0 0.0 250 / 21010.9 -2.0-2.0
2017-Jan-24 17:00N 50°36' W 096°54'0 0.0 220 / 31010.7 -2.6-2.6
2017-Jan-24 16:00N 50°36' W 096°54'0 0.0 200 / 41010.5 -3.2-3.0
2017-Jan-24 15:00N 50°36' W 096°54'0 0.0 200 / 41010.2 -3.5-3.3
2017-Jan-24 14:00N 50°36' W 096°54'0 0.0 190 / 51010.1 -3.7-3.5
2017-Jan-24 13:00N 50°36' W 096°54'0 0.0 190 / 61009.7 -3.6-3.4
2017-Jan-24 12:00N 50°36' W 096°54'0 0.0 190 / 61009.3 -3.6-3.4
2017-Jan-24 11:00N 50°36' W 096°54'0 0.0 170 / 61009.3 -3.4-3.3
2017-Jan-24 10:00N 50°36' W 096°54'0 0.0 170 / 61009.1 -3.4-3.3
2017-Jan-24 09:00N 50°36' W 096°54'0 0.0 180 / 71008.8 -3.3-3.2
2017-Jan-24 08:00N 50°36' W 096°54'0 0.0 180 / 81008.7 -3.3-3.2
2017-Jan-24 07:00N 50°36' W 096°54'0 0.0 180 / 71008.6 -3.2-3.2
2017-Jan-24 06:00N 50°36' W 096°54'0 0.0 180 / 81008.2 -3.1-3.1
2017-Jan-24 05:00N 50°36' W 096°54'0 0.0 180 / 81008.1 -3.0-3.0
2017-Jan-24 04:00N 50°36' W 096°54'0 0.0 180 / 71008.1 -2.9-2.9
2017-Jan-24 03:00N 50°36' W 096°54'0 0.0 180 / 91008.0 -2.9-2.8
2017-Jan-24 02:00N 50°36' W 096°54'0 0.0 180 / 71008.0 -2.7-2.6
2017-Jan-24 01:00N 50°36' W 096°54'0 0.0 190 / 81007.7 -2.4-2.4
2017-Jan-24 00:00N 50°36' W 096°54'0 0.0 180 / 81007.7 -2.3-2.3
2017-Jan-23 23:00N 50°36' W 096°54'0 0.0 170 / 91007.4 -2.0-2.0
2017-Jan-23 22:00N 50°36' W 096°54'0 0.0 160 / 91006.9 -1.4-1.4
2017-Jan-23 21:00N 50°36' W 096°54'0 0.0 180 / 81006.6 -1.0-1.0
2017-Jan-23 20:00N 50°36' W 096°54'0 0.0 190 / 81006.6 -0.7-0.7
2017-Jan-23 19:00N 50°36' W 096°54'0 0.0 180 / 71006.8 -0.6-0.5
2017-Jan-23 18:00N 50°36' W 096°54'0 0.0 190 / 71006.9 -0.7-0.6
2017-Jan-23 17:00N 50°36' W 096°54'0 0.0 160 / 51007.1 -1.6-1.3
2017-Jan-23 16:00N 50°36' W 096°54'0 0.0 180 / 31006.9 -1.7-1.4
2017-Jan-23 15:00N 50°36' W 096°54'0 0.0 180 / 61007.0 -1.4-1.1
2017-Jan-23 14:00N 50°36' W 096°54'0 0.0 180 / 61007.1 -1.3-0.9
2017-Jan-23 13:00N 50°36' W 096°54'0 0.0 180 / 61006.8 -1.2-0.6
2017-Jan-23 12:00N 50°36' W 096°54'0 0.0 190 / 61006.8 -1.1-0.4
2017-Jan-23 11:00N 50°36' W 096°54'0 0.0 190 / 61006.9 -1.1-0.4
2017-Jan-23 10:00N 50°36' W 096°54'0 0.0 180 / 51007.0 -0.7-0.0
2017-Jan-23 09:00N 50°36' W 096°54'0 0.0 180 / 31007.1 -0.5 0.3
2017-Jan-23 08:00N 50°36' W 096°54'0 0.0 160 / 31007.0 -0.5 0.2
2017-Jan-23 07:00N 50°36' W 096°54'0 0.0 170 / 31007.0 -0.4 0.3
2017-Jan-23 06:00N 50°36' W 096°54'0 0.0 190 / 41007.2 -0.3 0.5
2017-Jan-23 05:00N 50°36' W 096°54'0 0.0 170 / 31007.1 -0.3 0.4
2017-Jan-23 04:00N 50°36' W 096°54'0 0.0 150 / 21007.2 -0.3 0.4
2017-Jan-23 03:00N 50°36' W 096°54'0 0.0 170 / 31007.3 -0.1 0.6
2017-Jan-23 02:00N 50°36' W 096°54'0 0.0 160 / 31007.5 -0.0 0.7
2017-Jan-23 01:00N 50°36' W 096°54'0 0.0 110 / 31007.6 0.8 1.5
2017-Jan-23 00:00N 50°36' W 096°54'0 0.0 110 / 41007.6 0.7 1.4
2017-Jan-22 23:00N 50°36' W 096°54'0 0.0 090 / 41007.4 0.8 1.5
2017-Jan-22 22:00N 50°36' W 096°54'0 0.0 110 / 31007.1 1.1 1.8
2017-Jan-22 21:00N 50°36' W 096°54'0 0.0 130 / 51007.0 0.8 1.5
2017-Jan-22 19:00N 50°36' W 096°54'0 0.0 110 / 31006.9 0.8 1.4
2017-Jan-22 18:00N 50°36' W 096°54'0 0.0 140 / 41007.1 0.4 1.1
2017-Jan-22 17:00N 50°36' W 096°54'0 0.0 120 / 51007.2 1.0 1.6
2017-Jan-22 16:00N 50°36' W 096°54'0 0.0 090 / 31006.8 1.0 1.6
2017-Jan-22 15:00N 50°36' W 096°54'0 0.0 100 / 41006.5 0.8 1.4
2017-Jan-22 14:00N 50°36' W 096°54'0 0.0 110 / 51006.2 0.7 1.3
2017-Jan-22 13:00N 50°36' W 096°54'0 0.0 090 / 11005.5 0.7 1.3
2017-Jan-22 12:00N 50°36' W 096°54'0 0.0 150 / 31005.3 -0.0 0.6
2017-Jan-22 11:00N 50°36' W 096°54'0 0.0 150 / 41005.3 0.1 0.7
2017-Jan-22 10:00N 50°36' W 096°54'0 0.0 140 / 51005.0 0.4 1.0
2017-Jan-22 09:00N 50°36' W 096°54'0 0.0 120 / 61004.5 1.0 1.5
2017-Jan-22 08:00N 50°36' W 096°54'0 0.0 130 / 51003.8 0.9 1.5
2017-Jan-22 07:00N 50°36' W 096°54'0 0.0 120 / 51003.5 1.0 1.6
2017-Jan-22 06:00N 50°36' W 096°54'0 0.0 110 / 41003.3 1.1 1.6
2017-Jan-22 05:00N 50°36' W 096°54'0 0.0 120 / 51003.0 1.1 1.7
2017-Jan-22 04:00N 50°36' W 096°54'0 0.0 090 / 61002.6 1.2 1.7
2017-Jan-22 03:00N 50°36' W 096°54'0 0.0 100 / 61002.0 1.4 1.9
2017-Jan-22 02:00N 50°36' W 096°54'0 0.0 100 / 31001.5 1.6 2.1
2017-Jan-22 01:00N 50°36' W 096°54'0 0.0 150 / 11001.4 0.9 1.3
2017-Jan-22 00:00N 50°36' W 096°54'0 0.0 090 / 51000.9 1.3 1.8
2017-Jan-21 23:00N 50°36' W 096°54'0 0.0 080 / 11000.3 1.1 1.5
2017-Jan-21 22:00N 50°36' W 096°54'0 0.0 090 / 4999.8 1.3 1.7
2017-Jan-21 21:00N 50°36' W 096°54'0 0.0 120 / 3999.2 1.5 1.9
2017-Jan-21 20:00N 50°36' W 096°54'0 0.0 060 / 1998.6 1.3 1.7
2017-Jan-21 19:00N 50°36' W 096°54'0 0.0 998.8 1.5 2.0
2017-Jan-21 18:00N 50°36' W 096°54'0 0.0 070 / 3999.0 1.4 1.9
2017-Jan-21 17:00N 50°36' W 096°54'0 0.0 140 / 4999.0 1.0 1.7
2017-Jan-21 16:00N 50°36' W 096°54'0 0.0 120 / 7998.9 1.1 1.7
2017-Jan-21 15:00N 50°36' W 096°54'0 0.0 110 / 7998.7 0.9 1.6
2017-Jan-21 14:00N 50°36' W 096°54'0 0.0 100 / 7998.4 0.8 1.5
2017-Jan-21 13:00N 50°36' W 096°54'0 0.0 110 / 10998.4 0.8 1.4
2017-Jan-21 12:00N 50°36' W 096°54'0 0.0 120 / 9998.2 0.8 1.4
2017-Jan-21 11:00N 50°36' W 096°54'0 0.0 110 / 9998.1 0.7 1.3
2017-Jan-21 10:00N 50°36' W 096°54'0 0.0 110 / 10998.4 0.7 1.3
2017-Jan-21 09:00N 50°36' W 096°54'0 0.0 110 / 10998.5 0.6 1.2
2017-Jan-21 08:00N 50°36' W 096°54'0 0.0 100 / 9998.6 0.5 1.1
2017-Jan-21 07:00N 50°36' W 096°54'0 0.0 120 / 8998.6 0.7 1.3
2017-Jan-21 06:00N 50°36' W 096°54'0 0.0 140 / 9998.9 0.7 1.2
2017-Jan-21 05:00N 50°36' W 096°54'0 0.0 120 / 9998.8 1.3 1.8
2017-Jan-21 04:00N 50°36' W 096°54'0 0.0 120 / 9998.9 1.4 1.9
2017-Jan-21 03:00N 50°36' W 096°54'0 0.0 120 / 11998.9 1.6 2.1
2017-Jan-21 02:00N 50°36' W 096°54'0 0.0 110 / 10999.4 1.4 1.9
2017-Jan-21 01:00N 50°36' W 096°54'0 0.0 100 / 9999.6 1.3 1.9
2017-Jan-21 00:00N 50°36' W 096°54'0 0.0 130 / 7999.6 1.0 1.5
2017-Jan-20 23:00N 50°36' W 096°54'0 0.0 150 / 6999.4 0.7 1.2
2017-Jan-20 22:00N 50°36' W 096°54'0 0.0 170 / 6999.5 0.7 1.2
2017-Jan-20 21:00N 50°36' W 096°54'0 0.0 150 / 7999.3 0.8 1.3
2017-Jan-20 20:00N 50°36' W 096°54'0 0.0 150 / 8999.2 0.9 1.3
2017-Jan-20 19:00N 50°36' W 096°54'0 0.0 140 / 9999.3 0.9 1.3
2017-Jan-20 18:00N 50°36' W 096°54'0 0.0 150 / 9999.7 0.7 1.2
2017-Jan-20 17:00N 50°36' W 096°54'0 0.0 160 / 91000.2 0.6 1.0
2017-Jan-20 16:00N 50°36' W 096°54'0 0.0 160 / 91000.0 0.4 0.7
2017-Jan-20 15:00N 50°36' W 096°54'0 0.0 150 / 8999.9 0.3 0.6
2017-Jan-20 14:00N 50°36' W 096°54'0 0.0 180 / 10999.7 0.9 1.1
2017-Jan-20 13:00N 50°36' W 096°54'0 0.0 170 / 15999.8 0.6 0.9
2017-Jan-20 12:00N 50°36' W 096°54'0 0.0 170 / 14999.9 -0.0 0.2
2017-Jan-20 11:00N 50°36' W 096°54'0 0.0 180 / 101000.0 -0.5-0.3
2017-Jan-20 10:00N 50°36' W 096°54'0 0.0 180 / 16999.7 -0.8-0.6
2017-Jan-20 09:00N 50°36' W 096°54'0 0.0 180 / 16999.6 -1.2-1.0
2017-Jan-20 08:00N 50°36' W 096°54'0 0.0 180 / 15999.3 -1.7-1.5
2017-Jan-20 07:00N 50°36' W 096°54'0 0.0 180 / 16999.5 -2.5-2.4
2017-Jan-20 06:00N 50°36' W 096°54'0 0.0 190 / 9999.8 -3.7-3.6
2017-Jan-20 05:00N 50°36' W 096°54'0 0.0 170 / 8999.5 -5.6-5.6
2017-Jan-20 04:00N 50°36' W 096°54'0 0.0 160 / 8999.5 -5.8-5.9
2017-Jan-20 03:00N 50°36' W 096°54'0 0.0 190 / 5999.8 -3.5-3.7
2017-Jan-20 02:00N 50°36' W 096°54'0 0.0 190 / 8999.8 -2.7-2.9
2017-Jan-20 01:00N 50°36' W 096°54'0 0.0 180 / 7999.9 -2.7-3.4
2017-Jan-20 00:00N 50°36' W 096°54'0 0.0 190 / 7999.8 -2.8-3.4
2017-Jan-19 23:00N 50°36' W 096°54'0 0.0 200 / 5999.5 -2.0-3.5
2017-Jan-19 22:00N 50°36' W 096°54'0 0.0 180 / 9999.3 -1.6-3.5
2017-Jan-19 21:00N 50°36' W 096°54'0 0.0 190 / 13999.2 -1.3-3.8
2017-Jan-19 20:00N 50°36' W 096°54'0 0.0 180 / 12998.8 -0.4-4.1
2017-Jan-19 19:00N 50°36' W 096°54'0 0.0 180 / 15998.9 -1.2-5.0
2017-Jan-19 18:00N 50°36' W 096°54'0 0.0 180 / 14998.9 -1.5-5.3
2017-Jan-19 17:00N 50°36' W 096°54'0 0.0 190 / 15999.3 -2.3-5.6
2017-Jan-19 16:00N 50°36' W 096°54'0 0.0 180 / 15998.8 -2.7-5.6
2017-Jan-19 15:00N 50°36' W 096°54'0 0.0 180 / 10999.5 -3.7-5.2
2017-Jan-19 14:00N 50°36' W 096°54'0 0.0 200 / 12999.0 -3.1-4.7
2017-Jan-19 13:00N 50°36' W 096°54'0 0.0 180 / 17999.1 -3.4-4.5
2017-Jan-19 12:00N 50°36' W 096°54'0 0.0 180 / 16999.1 -3.1-4.1
2017-Jan-19 11:00N 50°36' W 096°54'0 0.0 190 / 12999.4 -2.5-3.7
2017-Jan-19 10:00N 50°36' W 096°54'0 0.0 190 / 12999.4 -2.5-3.8
2017-Jan-19 09:00N 50°36' W 096°54'0 0.0 180 / 15999.7 -2.5-3.6
2017-Jan-19 08:00N 50°36' W 096°54'0 0.0 190 / 12999.8 -2.1-3.0
2017-Jan-19 07:00N 50°36' W 096°54'0 0.0 170 / 10999.1 -2.1-2.6
2017-Jan-19 06:00N 50°36' W 096°54'0 0.0 180 / 111000.1 -1.6-2.6
2017-Jan-19 05:00N 50°36' W 096°54'0 0.0 180 / 81000.3 -1.4-2.7
2017-Jan-19 04:00N 50°36' W 096°54'0 0.0 160 / 91000.7 -4.1-4.3
2017-Jan-19 03:00N 50°36' W 096°54'0 0.0 160 / 111001.5 -3.9-4.1
2017-Jan-19 02:00N 50°36' W 096°54'0 0.0 170 / 111001.9 -1.9-2.7
2017-Jan-19 01:00N 50°36' W 096°54'0 0.0 170 / 111002.7 -2.8-2.9
2017-Jan-19 00:00N 50°36' W 096°54'0 0.0 150 / 91003.1 -3.6-3.7
2017-Jan-18 23:00N 50°36' W 096°54'0 0.0 170 / 101003.2 -2.8-3.1
2017-Jan-18 22:00N 50°36' W 096°54'0 0.0 150 / 101003.7 -3.1-3.3
2017-Jan-18 21:00N 50°36' W 096°54'0 0.0 160 / 131003.8 -2.4-3.1
2017-Jan-18 20:00N 50°36' W 096°54'0 0.0 150 / 91004.0 -4.1-4.3
2017-Jan-18 19:00N 50°36' W 096°54'0 0.0 160 / 81004.8 -4.9-5.2
2017-Jan-18 18:00N 50°36' W 096°54'0 0.0 160 / 71005.2 -6.6-6.9
2017-Jan-18 17:00N 50°36' W 096°54'0 0.0 150 / 81005.4 -7.9-8.1
2017-Jan-18 16:00N 50°36' W 096°54'0 0.0 160 / 51005.0 -8.7-9.1
2017-Jan-18 15:00N 50°36' W 096°54'0 0.0 180 / 71004.7 -8.2-8.3
2017-Jan-18 14:00N 50°36' W 096°54'0 0.0 180 / 61004.5 -8.9-9.0
2017-Jan-18 13:00N 50°36' W 096°54'0 0.0 170 / 61003.9 -9.0-9.1
2017-Jan-18 12:00N 50°36' W 096°54'0 0.0 190 / 61003.7 -8.5-8.7
2017-Jan-18 11:00N 50°36' W 096°54'0 0.0 160 / 51003.6 -8.3-8.6
2017-Jan-18 10:00N 50°36' W 096°54'0 0.0 180 / 31003.3 -7.7-8.4
2017-Jan-18 09:00N 50°36' W 096°54'0 0.0 210 / 71002.4 -7.2-8.1
2017-Jan-18 08:00N 50°36' W 096°54'0 0.0 180 / 71001.6 -7.2-8.2
2017-Jan-18 07:00N 50°36' W 096°54'0 0.0 180 / 61002.0 -6.6-8.1
2017-Jan-18 06:00N 50°36' W 096°54'0 0.0 200 / 91001.5 -5.6-7.6
2017-Jan-18 05:00N 50°36' W 096°54'0 0.0 170 / 71001.5 -6.6-8.0
2017-Jan-18 04:00N 50°36' W 096°54'0 0.0 180 / 81002.2 -6.0-8.0
2017-Jan-18 03:00N 50°36' W 096°54'0 0.0 190 / 101001.1 -5.2-7.7
2017-Jan-18 02:00N 50°36' W 096°54'0 0.0 180 / 161000.6 -5.2-7.8
2017-Jan-18 01:00N 50°36' W 096°54'0 0.0 190 / 121001.8 -5.5-7.9
2017-Jan-18 00:00N 50°36' W 096°54'0 0.0 180 / 201000.8 -4.7-7.8
2017-Jan-17 23:00N 50°36' W 096°54'0 0.0 190 / 211001.2 -4.0-7.4
2017-Jan-17 22:00N 50°36' W 096°54'0 0.0 190 / 181002.3 -2.6-7.1
2017-Jan-17 21:00N 50°36' W 096°54'0 0.0 180 / 191003.3 -2.9-6.9
2017-Jan-17 20:00N 50°36' W 096°54'0 0.0 180 / 181004.7 -3.2-7.2
2017-Jan-17 19:00N 50°36' W 096°54'0 0.0 180 / 171006.0 -5.1-7.9
2017-Jan-17 18:00N 50°36' W 096°54'0 0.0 190 / 171007.4 -7.1-9.0
2017-Jan-17 17:00N 50°36' W 096°54'0 0.0 190 / 111009.2 -8.3-9.8
2017-Jan-17 16:00N 50°36' W 096°54'0 0.0 190 / 141010.3 -10.3-11.2
2017-Jan-17 15:00N 50°36' W 096°54'0 0.0 180 / 121011.4 -12.9-13.8
2017-Jan-17 14:00N 50°36' W 096°54'0 0.0 170 / 71011.9 -14.5-15.3
2017-Jan-17 13:00N 50°36' W 096°54'0 0.0 190 / 71013.1 -13.8-14.4
2017-Jan-17 12:00N 50°36' W 096°54'0 0.0 170 / 71014.0 -14.5-15.5
2017-Jan-17 11:00N 50°36' W 096°54'0 0.0 170 / 51014.8 -15.4-16.7
2017-Jan-17 10:00N 50°36' W 096°54'0 0.0 170 / 81015.5 -16.6-18.1
2017-Jan-17 09:00N 50°36' W 096°54'0 0.0 180 / 61015.9 -15.5-16.7
2017-Jan-17 07:00N 50°36' W 096°54'0 0.0 160 / 81016.5 -15.4-16.6
2017-Jan-17 06:00N 50°36' W 096°54'0 0.0 180 / 51017.1 -14.7-15.9
2017-Jan-17 05:00N 50°36' W 096°54'0 0.0 170 / 71017.0 -15.1-16.4
2017-Jan-17 04:00N 50°36' W 096°54'0 0.0 190 / 61018.3 -12.1-13.8
2017-Jan-17 03:00N 50°36' W 096°54'0 0.0 200 / 51018.4 -12.1-13.7
2017-Jan-17 02:00N 50°36' W 096°54'0 0.0 200 / 41018.6 -11.3-13.6
2017-Jan-17 01:00N 50°36' W 096°54'0 0.0 170 / 61018.8 -10.7-13.6
2017-Jan-17 00:00N 50°36' W 096°54'0 0.0 170 / 41019.4 -9.7-13.5
2017-Jan-16 23:00N 50°36' W 096°54'0 0.0 190 / 41018.8 -10.1-13.4
2017-Jan-16 22:00N 50°36' W 096°54'0 0.0 150 / 51018.5 -9.5-12.9
2017-Jan-16 21:00N 50°36' W 096°54'0 0.0 160 / 41018.8 -9.4-12.2
2017-Jan-16 20:00N 50°36' W 096°54'0 0.0 100 / 21019.0 -6.1-11.1
2017-Jan-16 19:00N 50°36' W 096°54'0 0.0 120 / 51019.2 -8.6-11.8
2017-Jan-16 18:00N 50°36' W 096°54'0 0.0 120 / 11019.6 -7.3-12.1
2017-Jan-16 17:00N 50°36' W 096°54'0 0.0 150 / 41019.6 -10.6-13.4
2017-Jan-16 16:00N 50°36' W 096°54'0 0.0 150 / 71019.2 -11.9-13.5
2017-Jan-16 15:00N 50°36' W 096°54'0 0.0 140 / 21018.6 -11.0-12.8
2017-Jan-16 14:00N 50°36' W 096°54'0 0.0 140 / 31018.2 -11.4-13.3
2017-Jan-16 13:00N 50°36' W 096°54'0 0.0 200 / 11017.8 -11.5-13.8
2017-Jan-16 12:00N 50°36' W 096°54'0 0.0 180 / 41017.8 -11.6-13.7
2017-Jan-16 11:00N 50°36' W 096°54'0 0.0 210 / 41017.4 -11.6-13.8
2017-Jan-16 10:00N 50°36' W 096°54'0 0.0 190 / 31017.2 -11.8-14.0
2017-Jan-16 09:00N 50°36' W 096°54'0 0.0 190 / 51016.9 -11.5-13.9
2017-Jan-16 08:00N 50°36' W 096°54'0 0.0 180 / 61016.3 -11.8-13.6
2017-Jan-16 07:00N 50°36' W 096°54'0 0.0 180 / 31015.7 -10.8-13.2
2017-Jan-16 06:00N 50°36' W 096°54'0 0.0 190 / 51015.4 -9.9-12.6
2017-Jan-16 05:00N 50°36' W 096°54'0 0.0 180 / 91014.6 -9.1-12.1
2017-Jan-16 04:00N 50°36' W 096°54'0 0.0 180 / 71014.1 -9.8-12.2
2017-Jan-16 03:00N 50°36' W 096°54'0 0.0 170 / 61013.8 -9.4-12.1
2017-Jan-16 02:00N 50°36' W 096°54'0 0.0 210 / 61013.0 -9.1-12.3
2017-Jan-16 01:00N 50°36' W 096°54'0 0.0 200 / 141012.5 -8.6-12.1
2017-Jan-16 00:00N 50°36' W 096°54'0 0.0 190 / 141012.3 -8.2-12.0
2017-Jan-15 23:00N 50°36' W 096°54'0 0.0 190 / 131012.3 -8.4-12.2
2017-Jan-15 22:00N 50°36' W 096°54'0 0.0 190 / 121011.9 -7.2-12.2
2017-Jan-15 21:00N 50°36' W 096°54'0 0.0 180 / 151011.7 -7.2-12.4
2017-Jan-15 20:00N 50°36' W 096°54'0 0.0 180 / 131012.2 -7.5-12.7
2017-Jan-15 19:00N 50°36' W 096°54'0 0.0 190 / 131012.5 -7.7-13.5
2017-Jan-15 18:00N 50°36' W 096°54'0 0.0 200 / 121013.5 -8.9-14.8
2017-Jan-15 17:00N 50°36' W 096°54'0 0.0 190 / 111014.5 -10.3-15.8
2017-Jan-15 16:00N 50°36' W 096°54'0 0.0 200 / 131015.2 -12.6-17.3
2017-Jan-15 15:00N 50°36' W 096°54'0 0.0 200 / 131015.9 -14.0-18.0
2017-Jan-15 14:00N 50°36' W 096°54'0 0.0 200 / 121016.3 -14.7-18.3
2017-Jan-15 13:00N 50°36' W 096°54'0 0.0 200 / 141016.5 -15.0-18.4
2017-Jan-15 12:00N 50°36' W 096°54'0 0.0 190 / 151017.1 -15.3-18.4
2017-Jan-15 11:00N 50°36' W 096°54'0 0.0 200 / 171017.8 -14.6-17.8
2017-Jan-15 10:00N 50°36' W 096°54'0 0.0 190 / 171018.8 -14.3-17.8
2017-Jan-15 09:00N 50°36' W 096°54'0 0.0 190 / 161020.3 -14.9-18.1
2017-Jan-15 08:00N 50°36' W 096°54'0 0.0 190 / 151021.0 -14.9-18.0
2017-Jan-15 07:00N 50°36' W 096°54'0 0.0 190 / 151021.7 -14.8-17.9
2017-Jan-15 06:00N 50°36' W 096°54'0 0.0 180 / 191022.9 -15.2-18.1
2017-Jan-15 05:00N 50°36' W 096°54'0 0.0 200 / 121024.0 -14.9-17.9
2017-Jan-15 04:00N 50°36' W 096°54'0 0.0 190 / 141024.3 -15.2-18.2
2017-Jan-15 03:00N 50°36' W 096°54'0 0.0 200 / 101024.8 -14.4-17.5
2017-Jan-15 02:00N 50°36' W 096°54'0 0.0 200 / 121026.0 -15.0-17.9
2017-Jan-15 01:00N 50°36' W 096°54'0 0.0 200 / 91026.7 -15.6-18.5
2017-Jan-15 00:00N 50°36' W 096°54'0 0.0 190 / 91027.3 -15.8-18.9
2017-Jan-14 23:00N 50°36' W 096°54'0 0.0 190 / 91027.9 -15.8-19.4
2017-Jan-14 22:00N 50°36' W 096°54'0 0.0 190 / 91028.3 -14.8-19.1
2017-Jan-14 21:00N 50°36' W 096°54'0 0.0 190 / 101028.7 -14.8-19.4
2017-Jan-14 20:00N 50°36' W 096°54'0 0.0 190 / 111029.2 -15.8-20.4
2017-Jan-14 19:00N 50°36' W 096°54'0 0.0 180 / 91030.2 -16.7-20.8
2017-Jan-14 18:00N 50°36' W 096°54'   160 / 101030.9 -18.8-22.4
Track history (hours):
 
Tides and Currents Weather Stations Pressure Air Temp Water Temp Dewpoint Dewpoint Depression Visibility Wind Speed Wind Dir Waves Ship Positions

Oceanographic research ship Namao (Canada)

Last reported at 2017-Jan-24 18:00 UTC. Time now 2017-Jan-24 19:18 UTC.
Position N 50°36' W 096°54'.

Wind from 250 at 2 knots

Barometer 1010.9 mb
Air temperature -2.0 ° C
Dewpoint -2.0 ° C

Date/timePositionNaut miles runAvg speedWind from/ knotsBaromVisibWave heightAir tempDewpointWater temp
2017-Jan-24 18:00N 50°36' W 096°54'0 0.0 250 / 21010.9 -2.0-2.0
2017-Jan-24 17:00N 50°36' W 096°54'0 0.0 220 / 31010.7 -2.6-2.6
2017-Jan-24 16:00N 50°36' W 096°54'0 0.0 200 / 41010.5 -3.2-3.0
2017-Jan-24 15:00N 50°36' W 096°54'0 0.0 200 / 41010.2 -3.5-3.3
2017-Jan-24 14:00N 50°36' W 096°54'0 0.0 190 / 51010.1 -3.7-3.5
2017-Jan-24 13:00N 50°36' W 096°54'0 0.0 190 / 61009.7 -3.6-3.4
2017-Jan-24 12:00N 50°36' W 096°54'0 0.0 190 / 61009.3 -3.6-3.4
2017-Jan-24 11:00N 50°36' W 096°54'0 0.0 170 / 61009.3 -3.4-3.3
2017-Jan-24 10:00N 50°36' W 096°54'0 0.0 170 / 61009.1 -3.4-3.3
2017-Jan-24 09:00N 50°36' W 096°54'0 0.0 180 / 71008.8 -3.3-3.2
2017-Jan-24 08:00N 50°36' W 096°54'0 0.0 180 / 81008.7 -3.3-3.2
2017-Jan-24 07:00N 50°36' W 096°54'0 0.0 180 / 71008.6 -3.2-3.2
2017-Jan-24 06:00N 50°36' W 096°54'0 0.0 180 / 81008.2 -3.1-3.1
2017-Jan-24 05:00N 50°36' W 096°54'0 0.0 180 / 81008.1 -3.0-3.0
2017-Jan-24 04:00N 50°36' W 096°54'0 0.0 180 / 71008.1 -2.9-2.9
2017-Jan-24 03:00N 50°36' W 096°54'0 0.0 180 / 91008.0 -2.9-2.8
2017-Jan-24 02:00N 50°36' W 096°54'0 0.0 180 / 71008.0 -2.7-2.6
2017-Jan-24 01:00N 50°36' W 096°54'0 0.0 190 / 81007.7 -2.4-2.4
2017-Jan-24 00:00N 50°36' W 096°54'0 0.0 180 / 81007.7 -2.3-2.3
2017-Jan-23 23:00N 50°36' W 096°54'0 0.0 170 / 91007.4 -2.0-2.0
2017-Jan-23 22:00N 50°36' W 096°54'0 0.0 160 / 91006.9 -1.4-1.4
2017-Jan-23 21:00N 50°36' W 096°54'0 0.0 180 / 81006.6 -1.0-1.0
2017-Jan-23 20:00N 50°36' W 096°54'0 0.0 190 / 81006.6 -0.7-0.7
2017-Jan-23 19:00N 50°36' W 096°54'0 0.0 180 / 71006.8 -0.6-0.5
2017-Jan-23 18:00N 50°36' W 096°54'0 0.0 190 / 71006.9 -0.7-0.6
2017-Jan-23 17:00N 50°36' W 096°54'0 0.0 160 / 51007.1 -1.6-1.3
2017-Jan-23 16:00N 50°36' W 096°54'0 0.0 180 / 31006.9 -1.7-1.4
2017-Jan-23 15:00N 50°36' W 096°54'0 0.0 180 / 61007.0 -1.4-1.1
2017-Jan-23 14:00N 50°36' W 096°54'0 0.0 180 / 61007.1 -1.3-0.9
2017-Jan-23 13:00N 50°36' W 096°54'0 0.0 180 / 61006.8 -1.2-0.6
2017-Jan-23 12:00N 50°36' W 096°54'0 0.0 190 / 61006.8 -1.1-0.4
2017-Jan-23 11:00N 50°36' W 096°54'0 0.0 190 / 61006.9 -1.1-0.4
2017-Jan-23 10:00N 50°36' W 096°54'0 0.0 180 / 51007.0 -0.7-0.0
2017-Jan-23 09:00N 50°36' W 096°54'0 0.0 180 / 31007.1 -0.5 0.3
2017-Jan-23 08:00N 50°36' W 096°54'0 0.0 160 / 31007.0 -0.5 0.2
2017-Jan-23 07:00N 50°36' W 096°54'0 0.0 170 / 31007.0 -0.4 0.3
2017-Jan-23 06:00N 50°36' W 096°54'0 0.0 190 / 41007.2 -0.3 0.5
2017-Jan-23 05:00N 50°36' W 096°54'0 0.0 170 / 31007.1 -0.3 0.4
2017-Jan-23 04:00N 50°36' W 096°54'0 0.0 150 / 21007.2 -0.3 0.4
2017-Jan-23 03:00N 50°36' W 096°54'0 0.0 170 / 31007.3 -0.1 0.6
2017-Jan-23 02:00N 50°36' W 096°54'0 0.0 160 / 31007.5 -0.0 0.7
2017-Jan-23 01:00N 50°36' W 096°54'0 0.0 110 / 31007.6 0.8 1.5
2017-Jan-23 00:00N 50°36' W 096°54'0 0.0 110 / 41007.6 0.7 1.4
2017-Jan-22 23:00N 50°36' W 096°54'0 0.0 090 / 41007.4 0.8 1.5
2017-Jan-22 22:00N 50°36' W 096°54'0 0.0 110 / 31007.1 1.1 1.8
2017-Jan-22 21:00N 50°36' W 096°54'0 0.0 130 / 51007.0 0.8 1.5
2017-Jan-22 19:00N 50°36' W 096°54'0 0.0 110 / 31006.9 0.8 1.4
2017-Jan-22 18:00N 50°36' W 096°54'0 0.0 140 / 41007.1 0.4 1.1
2017-Jan-22 17:00N 50°36' W 096°54'0 0.0 120 / 51007.2 1.0 1.6
2017-Jan-22 16:00N 50°36' W 096°54'0 0.0 090 / 31006.8 1.0 1.6
2017-Jan-22 15:00N 50°36' W 096°54'0 0.0 100 / 41006.5 0.8 1.4
2017-Jan-22 14:00N 50°36' W 096°54'0 0.0 110 / 51006.2 0.7 1.3
2017-Jan-22 13:00N 50°36' W 096°54'0 0.0 090 / 11005.5 0.7 1.3
2017-Jan-22 12:00N 50°36' W 096°54'0 0.0 150 / 31005.3 -0.0 0.6
2017-Jan-22 11:00N 50°36' W 096°54'0 0.0 150 / 41005.3 0.1 0.7
2017-Jan-22 10:00N 50°36' W 096°54'0 0.0 140 / 51005.0 0.4 1.0
2017-Jan-22 09:00N 50°36' W 096°54'0 0.0 120 / 61004.5 1.0 1.5
2017-Jan-22 08:00N 50°36' W 096°54'0 0.0 130 / 51003.8 0.9 1.5
2017-Jan-22 07:00N 50°36' W 096°54'0 0.0 120 / 51003.5 1.0 1.6
2017-Jan-22 06:00N 50°36' W 096°54'0 0.0 110 / 41003.3 1.1 1.6
2017-Jan-22 05:00N 50°36' W 096°54'0 0.0 120 / 51003.0 1.1 1.7
2017-Jan-22 04:00N 50°36' W 096°54'0 0.0 090 / 61002.6 1.2 1.7
2017-Jan-22 03:00N 50°36' W 096°54'0 0.0 100 / 61002.0 1.4 1.9
2017-Jan-22 02:00N 50°36' W 096°54'0 0.0 100 / 31001.5 1.6 2.1
2017-Jan-22 01:00N 50°36' W 096°54'0 0.0 150 / 11001.4 0.9 1.3
2017-Jan-22 00:00N 50°36' W 096°54'0 0.0 090 / 51000.9 1.3 1.8
2017-Jan-21 23:00N 50°36' W 096°54'0 0.0 080 / 11000.3 1.1 1.5
2017-Jan-21 22:00N 50°36' W 096°54'0 0.0 090 / 4999.8 1.3 1.7
2017-Jan-21 21:00N 50°36' W 096°54'0 0.0 120 / 3999.2 1.5 1.9
2017-Jan-21 20:00N 50°36' W 096°54'0 0.0 060 / 1998.6 1.3 1.7
2017-Jan-21 19:00N 50°36' W 096°54'0 0.0 998.8 1.5 2.0
2017-Jan-21 18:00N 50°36' W 096°54'0 0.0 070 / 3999.0 1.4 1.9
2017-Jan-21 17:00N 50°36' W 096°54'0 0.0 140 / 4999.0 1.0 1.7
2017-Jan-21 16:00N 50°36' W 096°54'0 0.0 120 / 7998.9 1.1 1.7
2017-Jan-21 15:00N 50°36' W 096°54'0 0.0 110 / 7998.7 0.9 1.6
2017-Jan-21 14:00N 50°36' W 096°54'0 0.0 100 / 7998.4 0.8 1.5
2017-Jan-21 13:00N 50°36' W 096°54'0 0.0 110 / 10998.4 0.8 1.4
2017-Jan-21 12:00N 50°36' W 096°54'0 0.0 120 / 9998.2 0.8 1.4
2017-Jan-21 11:00N 50°36' W 096°54'0 0.0 110 / 9998.1 0.7 1.3
2017-Jan-21 10:00N 50°36' W 096°54'0 0.0 110 / 10998.4 0.7 1.3
2017-Jan-21 09:00N 50°36' W 096°54'0 0.0 110 / 10998.5 0.6 1.2
2017-Jan-21 08:00N 50°36' W 096°54'0 0.0 100 / 9998.6 0.5 1.1
2017-Jan-21 07:00N 50°36' W 096°54'0 0.0 120 / 8998.6 0.7 1.3
2017-Jan-21 06:00N 50°36' W 096°54'0 0.0 140 / 9998.9 0.7 1.2
2017-Jan-21 05:00N 50°36' W 096°54'0 0.0 120 / 9998.8 1.3 1.8
2017-Jan-21 04:00N 50°36' W 096°54'0 0.0 120 / 9998.9 1.4 1.9
2017-Jan-21 03:00N 50°36' W 096°54'0 0.0 120 / 11998.9 1.6 2.1
2017-Jan-21 02:00N 50°36' W 096°54'0 0.0 110 / 10999.4 1.4 1.9
2017-Jan-21 01:00N 50°36' W 096°54'0 0.0 100 / 9999.6 1.3 1.9
2017-Jan-21 00:00N 50°36' W 096°54'0 0.0 130 / 7999.6 1.0 1.5
2017-Jan-20 23:00N 50°36' W 096°54'0 0.0 150 / 6999.4 0.7 1.2
2017-Jan-20 22:00N 50°36' W 096°54'0 0.0 170 / 6999.5 0.7 1.2
2017-Jan-20 21:00N 50°36' W 096°54'0 0.0 150 / 7999.3 0.8 1.3
2017-Jan-20 20:00N 50°36' W 096°54'0 0.0 150 / 8999.2 0.9 1.3
2017-Jan-20 19:00N 50°36' W 096°54'0 0.0 140 / 9999.3 0.9 1.3
2017-Jan-20 18:00N 50°36' W 096°54'0 0.0 150 / 9999.7 0.7 1.2
2017-Jan-20 17:00N 50°36' W 096°54'0 0.0 160 / 91000.2 0.6 1.0
2017-Jan-20 16:00N 50°36' W 096°54'0 0.0 160 / 91000.0 0.4 0.7
2017-Jan-20 15:00N 50°36' W 096°54'0 0.0 150 / 8999.9 0.3 0.6
2017-Jan-20 14:00N 50°36' W 096°54'0 0.0 180 / 10999.7 0.9 1.1
2017-Jan-20 13:00N 50°36' W 096°54'0 0.0 170 / 15999.8 0.6 0.9
2017-Jan-20 12:00N 50°36' W 096°54'0 0.0 170 / 14999.9 -0.0 0.2
2017-Jan-20 11:00N 50°36' W 096°54'0 0.0 180 / 101000.0 -0.5-0.3
2017-Jan-20 10:00N 50°36' W 096°54'0 0.0 180 / 16999.7 -0.8-0.6
2017-Jan-20 09:00N 50°36' W 096°54'0 0.0 180 / 16999.6 -1.2-1.0
2017-Jan-20 08:00N 50°36' W 096°54'0 0.0 180 / 15999.3 -1.7-1.5
2017-Jan-20 07:00N 50°36' W 096°54'0 0.0 180 / 16999.5 -2.5-2.4
2017-Jan-20 06:00N 50°36' W 096°54'0 0.0 190 / 9999.8 -3.7-3.6
2017-Jan-20 05:00N 50°36' W 096°54'0 0.0 170 / 8999.5 -5.6-5.6
2017-Jan-20 04:00N 50°36' W 096°54'0 0.0 160 / 8999.5 -5.8-5.9
2017-Jan-20 03:00N 50°36' W 096°54'0 0.0 190 / 5999.8 -3.5-3.7
2017-Jan-20 02:00N 50°36' W 096°54'0 0.0 190 / 8999.8 -2.7-2.9
2017-Jan-20 01:00N 50°36' W 096°54'0 0.0 180 / 7999.9 -2.7-3.4
2017-Jan-20 00:00N 50°36' W 096°54'0 0.0 190 / 7999.8 -2.8-3.4
2017-Jan-19 23:00N 50°36' W 096°54'0 0.0 200 / 5999.5 -2.0-3.5
2017-Jan-19 22:00N 50°36' W 096°54'0 0.0 180 / 9999.3 -1.6-3.5
2017-Jan-19 21:00N 50°36' W 096°54'0 0.0 190 / 13999.2 -1.3-3.8
2017-Jan-19 20:00N 50°36' W 096°54'0 0.0 180 / 12998.8 -0.4-4.1
2017-Jan-19 19:00N 50°36' W 096°54'0 0.0 180 / 15998.9 -1.2-5.0
2017-Jan-19 18:00N 50°36' W 096°54'0 0.0 180 / 14998.9 -1.5-5.3
2017-Jan-19 17:00N 50°36' W 096°54'0 0.0 190 / 15999.3 -2.3-5.6
2017-Jan-19 16:00N 50°36' W 096°54'0 0.0 180 / 15998.8 -2.7-5.6
2017-Jan-19 15:00N 50°36' W 096°54'0 0.0 180 / 10999.5 -3.7-5.2
2017-Jan-19 14:00N 50°36' W 096°54'0 0.0 200 / 12999.0 -3.1-4.7
2017-Jan-19 13:00N 50°36' W 096°54'0 0.0 180 / 17999.1 -3.4-4.5
2017-Jan-19 12:00N 50°36' W 096°54'0 0.0 180 / 16999.1 -3.1-4.1
2017-Jan-19 11:00N 50°36' W 096°54'0 0.0 190 / 12999.4 -2.5-3.7
2017-Jan-19 10:00N 50°36' W 096°54'0 0.0 190 / 12999.4 -2.5-3.8
2017-Jan-19 09:00N 50°36' W 096°54'0 0.0 180 / 15999.7 -2.5-3.6
2017-Jan-19 08:00N 50°36' W 096°54'0 0.0 190 / 12999.8 -2.1-3.0
2017-Jan-19 07:00N 50°36' W 096°54'0 0.0 170 / 10999.1 -2.1-2.6
2017-Jan-19 06:00N 50°36' W 096°54'0 0.0 180 / 111000.1 -1.6-2.6
2017-Jan-19 05:00N 50°36' W 096°54'0 0.0 180 / 81000.3 -1.4-2.7
2017-Jan-19 04:00N 50°36' W 096°54'0 0.0 160 / 91000.7 -4.1-4.3
2017-Jan-19 03:00N 50°36' W 096°54'0 0.0 160 / 111001.5 -3.9-4.1
2017-Jan-19 02:00N 50°36' W 096°54'0 0.0 170 / 111001.9 -1.9-2.7
2017-Jan-19 01:00N 50°36' W 096°54'0 0.0 170 / 111002.7 -2.8-2.9
2017-Jan-19 00:00N 50°36' W 096°54'0 0.0 150 / 91003.1 -3.6-3.7
2017-Jan-18 23:00N 50°36' W 096°54'0 0.0 170 / 101003.2 -2.8-3.1
2017-Jan-18 22:00N 50°36' W 096°54'0 0.0 150 / 101003.7 -3.1-3.3
2017-Jan-18 21:00N 50°36' W 096°54'0 0.0 160 / 131003.8 -2.4-3.1
2017-Jan-18 20:00N 50°36' W 096°54'0 0.0 150 / 91004.0 -4.1-4.3
2017-Jan-18 19:00N 50°36' W 096°54'0 0.0 160 / 81004.8 -4.9-5.2
2017-Jan-18 18:00N 50°36' W 096°54'0 0.0 160 / 71005.2 -6.6-6.9
2017-Jan-18 17:00N 50°36' W 096°54'0 0.0 150 / 81005.4 -7.9-8.1
2017-Jan-18 16:00N 50°36' W 096°54'0 0.0 160 / 51005.0 -8.7-9.1
2017-Jan-18 15:00N 50°36' W 096°54'0 0.0 180 / 71004.7 -8.2-8.3
2017-Jan-18 14:00N 50°36' W 096°54'0 0.0 180 / 61004.5 -8.9-9.0
2017-Jan-18 13:00N 50°36' W 096°54'0 0.0 170 / 61003.9 -9.0-9.1
2017-Jan-18 12:00N 50°36' W 096°54'0 0.0 190 / 61003.7 -8.5-8.7
2017-Jan-18 11:00N 50°36' W 096°54'0 0.0 160 / 51003.6 -8.3-8.6
2017-Jan-18 10:00N 50°36' W 096°54'0 0.0 180 / 31003.3 -7.7-8.4
2017-Jan-18 09:00N 50°36' W 096°54'0 0.0 210 / 71002.4 -7.2-8.1
2017-Jan-18 08:00N 50°36' W 096°54'0 0.0 180 / 71001.6 -7.2-8.2
2017-Jan-18 07:00N 50°36' W 096°54'0 0.0 180 / 61002.0 -6.6-8.1
2017-Jan-18 06:00N 50°36' W 096°54'0 0.0 200 / 91001.5 -5.6-7.6
2017-Jan-18 05:00N 50°36' W 096°54'0 0.0 170 / 71001.5 -6.6-8.0
2017-Jan-18 04:00N 50°36' W 096°54'0 0.0 180 / 81002.2 -6.0-8.0
2017-Jan-18 03:00N 50°36' W 096°54'0 0.0 190 / 101001.1 -5.2-7.7
2017-Jan-18 02:00N 50°36' W 096°54'0 0.0 180 / 161000.6 -5.2-7.8
2017-Jan-18 01:00N 50°36' W 096°54'0 0.0 190 / 121001.8 -5.5-7.9
2017-Jan-18 00:00N 50°36' W 096°54'0 0.0 180 / 201000.8 -4.7-7.8
2017-Jan-17 23:00N 50°36' W 096°54'0 0.0 190 / 211001.2 -4.0-7.4
2017-Jan-17 22:00N 50°36' W 096°54'0 0.0 190 / 181002.3 -2.6-7.1
2017-Jan-17 21:00N 50°36' W 096°54'0 0.0 180 / 191003.3 -2.9-6.9
2017-Jan-17 20:00N 50°36' W 096°54'0 0.0 180 / 181004.7 -3.2-7.2
2017-Jan-17 19:00N 50°36' W 096°54'0 0.0 180 / 171006.0 -5.1-7.9
2017-Jan-17 18:00N 50°36' W 096°54'0 0.0 190 / 171007.4 -7.1-9.0
2017-Jan-17 17:00N 50°36' W 096°54'0 0.0 190 / 111009.2 -8.3-9.8
2017-Jan-17 16:00N 50°36' W 096°54'0 0.0 190 / 141010.3 -10.3-11.2
2017-Jan-17 15:00N 50°36' W 096°54'0 0.0 180 / 121011.4 -12.9-13.8
2017-Jan-17 14:00N 50°36' W 096°54'0 0.0 170 / 71011.9 -14.5-15.3
2017-Jan-17 13:00N 50°36' W 096°54'0 0.0 190 / 71013.1 -13.8-14.4
2017-Jan-17 12:00N 50°36' W 096°54'0 0.0 170 / 71014.0 -14.5-15.5
2017-Jan-17 11:00N 50°36' W 096°54'0 0.0 170 / 51014.8 -15.4-16.7
2017-Jan-17 10:00N 50°36' W 096°54'0 0.0 170 / 81015.5 -16.6-18.1
2017-Jan-17 09:00N 50°36' W 096°54'0 0.0 180 / 61015.9 -15.5-16.7
2017-Jan-17 07:00N 50°36' W 096°54'0 0.0 160 / 81016.5 -15.4-16.6
2017-Jan-17 06:00N 50°36' W 096°54'0 0.0 180 / 51017.1 -14.7-15.9
2017-Jan-17 05:00N 50°36' W 096°54'0 0.0 170 / 71017.0 -15.1-16.4
2017-Jan-17 04:00N 50°36' W 096°54'0 0.0 190 / 61018.3 -12.1-13.8
2017-Jan-17 03:00N 50°36' W 096°54'0 0.0 200 / 51018.4 -12.1-13.7
2017-Jan-17 02:00N 50°36' W 096°54'0 0.0 200 / 41018.6 -11.3-13.6
2017-Jan-17 01:00N 50°36' W 096°54'0 0.0 170 / 61018.8 -10.7-13.6
2017-Jan-17 00:00N 50°36' W 096°54'0 0.0 170 / 41019.4 -9.7-13.5
2017-Jan-16 23:00N 50°36' W 096°54'0 0.0 190 / 41018.8 -10.1-13.4
2017-Jan-16 22:00N 50°36' W 096°54'0 0.0 150 / 51018.5 -9.5-12.9
2017-Jan-16 21:00N 50°36' W 096°54'0 0.0 160 / 41018.8 -9.4-12.2
2017-Jan-16 20:00N 50°36' W 096°54'0 0.0 100 / 21019.0 -6.1-11.1
2017-Jan-16 19:00N 50°36' W 096°54'0 0.0 120 / 51019.2 -8.6-11.8
2017-Jan-16 18:00N 50°36' W 096°54'0 0.0 120 / 11019.6 -7.3-12.1
2017-Jan-16 17:00N 50°36' W 096°54'0 0.0 150 / 41019.6 -10.6-13.4
2017-Jan-16 16:00N 50°36' W 096°54'0 0.0 150 / 71019.2 -11.9-13.5
2017-Jan-16 15:00N 50°36' W 096°54'0 0.0 140 / 21018.6 -11.0-12.8
2017-Jan-16 14:00N 50°36' W 096°54'0 0.0 140 / 31018.2 -11.4-13.3
2017-Jan-16 13:00N 50°36' W 096°54'0 0.0 200 / 11017.8 -11.5-13.8
2017-Jan-16 12:00N 50°36' W 096°54'0 0.0 180 / 41017.8 -11.6-13.7
2017-Jan-16 11:00N 50°36' W 096°54'0 0.0 210 / 41017.4 -11.6-13.8
2017-Jan-16 10:00N 50°36' W 096°54'0 0.0 190 / 31017.2 -11.8-14.0
2017-Jan-16 09:00N 50°36' W 096°54'0 0.0 190 / 51016.9 -11.5-13.9
2017-Jan-16 08:00N 50°36' W 096°54'0 0.0 180 / 61016.3 -11.8-13.6
2017-Jan-16 07:00N 50°36' W 096°54'0 0.0 180 / 31015.7 -10.8-13.2
2017-Jan-16 06:00N 50°36' W 096°54'0 0.0 190 / 51015.4 -9.9-12.6
2017-Jan-16 05:00N 50°36' W 096°54'0 0.0 180 / 91014.6 -9.1-12.1
2017-Jan-16 04:00N 50°36' W 096°54'0 0.0 180 / 71014.1 -9.8-12.2
2017-Jan-16 03:00N 50°36' W 096°54'0 0.0 170 / 61013.8 -9.4-12.1
2017-Jan-16 02:00N 50°36' W 096°54'0 0.0 210 / 61013.0 -9.1-12.3
2017-Jan-16 01:00N 50°36' W 096°54'0 0.0 200 / 141012.5 -8.6-12.1
2017-Jan-16 00:00N 50°36' W 096°54'0 0.0 190 / 141012.3 -8.2-12.0
2017-Jan-15 23:00N 50°36' W 096°54'0 0.0 190 / 131012.3 -8.4-12.2
2017-Jan-15 22:00N 50°36' W 096°54'0 0.0 190 / 121011.9 -7.2-12.2
2017-Jan-15 21:00N 50°36' W 096°54'0 0.0 180 / 151011.7 -7.2-12.4
2017-Jan-15 20:00N 50°36' W 096°54'0 0.0 180 / 131012.2 -7.5-12.7
2017-Jan-15 19:00N 50°36' W 096°54'0 0.0 190 / 131012.5 -7.7-13.5
2017-Jan-15 18:00N 50°36' W 096°54'0 0.0 200 / 121013.5 -8.9-14.8
2017-Jan-15 17:00N 50°36' W 096°54'0 0.0 190 / 111014.5 -10.3-15.8
2017-Jan-15 16:00N 50°36' W 096°54'0 0.0 200 / 131015.2 -12.6-17.3
2017-Jan-15 15:00N 50°36' W 096°54'0 0.0 200 / 131015.9 -14.0-18.0
2017-Jan-15 14:00N 50°36' W 096°54'0 0.0 200 / 121016.3 -14.7-18.3
2017-Jan-15 13:00N 50°36' W 096°54'0 0.0 200 / 141016.5 -15.0-18.4
2017-Jan-15 12:00N 50°36' W 096°54'0 0.0 190 / 151017.1 -15.3-18.4
2017-Jan-15 11:00N 50°36' W 096°54'0 0.0 200 / 171017.8 -14.6-17.8
2017-Jan-15 10:00N 50°36' W 096°54'0 0.0 190 / 171018.8 -14.3-17.8
2017-Jan-15 09:00N 50°36' W 096°54'0 0.0 190 / 161020.3 -14.9-18.1
2017-Jan-15 08:00N 50°36' W 096°54'0 0.0 190 / 151021.0 -14.9-18.0
2017-Jan-15 07:00N 50°36' W 096°54'0 0.0 190 / 151021.7 -14.8-17.9
2017-Jan-15 06:00N 50°36' W 096°54'0 0.0 180 / 191022.9 -15.2-18.1
2017-Jan-15 05:00N 50°36' W 096°54'0 0.0 200 / 121024.0 -14.9-17.9
2017-Jan-15 04:00N 50°36' W 096°54'0 0.0 190 / 141024.3 -15.2-18.2
2017-Jan-15 03:00N 50°36' W 096°54'0 0.0 200 / 101024.8 -14.4-17.5
2017-Jan-15 02:00N 50°36' W 096°54'0 0.0 200 / 121026.0 -15.0-17.9
2017-Jan-15 01:00N 50°36' W 096°54'0 0.0 200 / 91026.7 -15.6-18.5
2017-Jan-15 00:00N 50°36' W 096°54'0 0.0 190 / 91027.3 -15.8-18.9
2017-Jan-14 23:00N 50°36' W 096°54'0 0.0 190 / 91027.9 -15.8-19.4
2017-Jan-14 22:00N 50°36' W 096°54'0 0.0 190 / 91028.3 -14.8-19.1
2017-Jan-14 21:00N 50°36' W 096°54'0 0.0 190 / 101028.7 -14.8-19.4
2017-Jan-14 20:00N 50°36' W 096°54'0 0.0 190 / 111029.2 -15.8-20.4
2017-Jan-14 19:00N 50°36' W 096°54'0 0.0 180 / 91030.2 -16.7-20.8
2017-Jan-14 18:00N 50°36' W 096°54'   160 / 101030.9 -18.8-22.4

Dump ship's entire track history